Time;durP1;ratioP1;P1;durP2;ratioP2;P2;SDS_P1;SDS_P2;PMS_P1;PMS_P2;Temp;Humidity;BMP_temperature;BMP_pressure;BME280_temperature;BME280_humidity;BME280_pressure;Samples;Min_cycle;Max_cycle;Signal;HPM_P1;HPM_P2
2021/12/10 00:02:15;;;;;;;20.93;13.80;;;;;;;2.82;100.00;97687.56;5117063;28;20274;-86
2021/12/10 00:04:45;;;;;;;21.20;14.03;;;;;;;2.89;100.00;97675.78;5111819;28;20226;-86
2021/12/10 00:07:20;;;;;;;17.40;12.77;;;;;;;2.77;100.00;97671.28;5115014;28;20223;-86
2021/12/10 00:09:52;;;;;;;18.13;12.30;;;;;;;2.89;100.00;97675.78;5113974;28;20198;-86
2021/12/10 00:12:23;;;;;;;20.40;13.47;;;;;;;2.85;100.00;97671.69;5111732;28;20259;-86
2021/12/10 00:14:53;;;;;;;22.53;13.40;;;;;;;2.87;100.00;97665.44;5140447;27;20225;-85
2021/12/10 00:17:22;;;;;;;17.90;12.23;;;;;;;2.94;100.00;97658.09;5135010;27;20194;-87
2021/12/10 00:19:57;;;;;;;21.70;13.60;;;;;;;2.94;100.00;97665.09;5111171;28;20191;-86
2021/12/10 00:22:37;;;;;;;19.33;12.27;;;;;;;2.97;100.00;97652.66;5113544;28;20191;-86
2021/12/10 00:25:13;;;;;;;18.43;13.23;;;;;;;2.91;100.00;97647.81;5112952;28;20201;-86
2021/12/10 00:27:42;;;;;;;17.63;12.37;;;;;;;3.00;100.00;97642.06;5107056;28;20193;-86
2021/12/10 00:30:14;;;;;;;17.13;13.00;;;;;;;2.90;100.00;97638.28;5113932;27;20198;-86
2021/12/10 00:32:49;;;;;;;16.47;11.90;;;;;;;2.96;100.00;97637.91;5117145;27;20218;-86
2021/12/10 00:35:24;;;;;;;15.20;11.17;;;;;;;3.04;100.00;97629.63;5107722;28;20202;-87
2021/12/10 00:37:53;;;;;;;15.93;11.60;;;;;;;3.06;100.00;97622.53;5111060;28;20247;-86
2021/12/10 00:40:23;;;;;;;13.93;11.10;;;;;;;3.02;100.00;97619.25;5114743;28;20191;-86
2021/12/10 00:42:53;;;;;;;15.87;11.00;;;;;;;3.05;100.00;97610.38;5072914;28;20199;-86
2021/12/10 00:45:22;;;;;;;13.60;9.80;;;;;;;3.03;100.00;97615.72;5114723;28;20202;-86
2021/12/10 00:47:52;;;;;;;13.30;10.90;;;;;;;3.02;100.00;97605.34;5117021;28;20218;-86
2021/12/10 00:50:25;;;;;;;16.47;11.33;;;;;;;2.98;100.00;97601.22;5118651;28;20194;-85
2021/12/10 00:52:54;;;;;;;15.80;11.83;;;;;;;2.94;100.00;97587.50;5114132;28;20221;-86
2021/12/10 00:55:25;;;;;;;16.77;11.97;;;;;;;3.01;100.00;97591.44;5116582;27;20202;-86
2021/12/10 00:57:55;;;;;;;17.63;12.27;;;;;;;3.01;100.00;97578.38;5112786;28;20199;-86
2021/12/10 01:00:30;;;;;;;16.67;12.23;;;;;;;3.05;100.00;97579.84;5114087;28;20191;-86
2021/12/10 01:02:58;;;;;;;17.63;11.93;;;;;;;3.03;100.00;97578.25;5112945;28;20189;-85
2021/12/10 01:05:29;;;;;;;16.23;11.67;;;;;;;3.03;100.00;97578.25;5113180;28;20202;-86
2021/12/10 01:07:57;;;;;;;15.83;11.23;;;;;;;3.07;100.00;97577.13;5112159;28;20219;-86
2021/12/10 01:10:30;;;;;;;15.73;11.03;;;;;;;2.93;100.00;97572.75;5114399;28;20209;-85
2021/12/10 01:13:01;;;;;;;16.00;12.00;;;;;;;2.95;100.00;97576.09;5112868;28;20195;-86
2021/12/10 01:24:08;;;;;;;16.20;11.63;;;;;;;3.02;100.00;97566.97;5114129;28;20202;-85
2021/12/10 01:26:54;;;;;;;17.27;11.60;;;;;;;3.07;100.00;97564.06;5111941;28;20220;-86
2021/12/10 01:29:29;;;;;;;15.97;11.40;;;;;;;2.97;100.00;97566.38;5107211;28;20199;-86
2021/12/10 01:32:00;;;;;;;18.70;12.57;;;;;;;2.96;100.00;97556.84;5113954;28;20187;-86
2021/12/10 01:34:30;;;;;;;16.13;12.13;;;;;;;3.00;100.00;97549.69;5108137;28;20230;-86
2021/12/10 01:37:03;;;;;;;18.53;11.93;;;;;;;3.08;100.00;97550.88;5112512;28;20206;-86
2021/12/10 01:39:38;;;;;;;18.27;12.97;;;;;;;3.17;100.00;97545.09;5113712;28;20192;-86
2021/12/10 01:42:19;;;;;;;18.23;13.10;;;;;;;3.07;100.00;97540.53;5109731;28;20194;-86
2021/12/10 01:44:52;;;;;;;17.03;13.13;;;;;;;3.14;100.00;97534.00;5069472;28;20245;-86
2021/12/10 01:47:25;;;;;;;17.40;12.07;;;;;;;3.06;100.00;97528.38;5065207;28;20215;-86
2021/12/10 01:49:54;;;;;;;20.50;13.77;;;;;;;3.06;100.00;97525.78;5068734;28;20207;-86
2021/12/10 01:52:26;;;;;;;21.70;13.90;;;;;;;3.14;100.00;97531.38;5070158;28;20192;-86
2021/12/10 01:54:59;;;;;;;20.30;14.73;;;;;;;3.06;100.00;97524.00;5071079;28;20223;-86
2021/12/10 01:57:33;;;;;;;19.37;13.90;;;;;;;3.21;100.00;97518.78;5067583;28;20192;-86
2021/12/10 02:00:02;;;;;;;21.63;14.00;;;;;;;3.08;100.00;97518.66;5067278;28;20869;-86
2021/12/10 02:02:35;;;;;;;18.30;14.13;;;;;;;3.16;100.00;97513.81;5066909;28;20192;-86
2021/12/10 02:05:05;;;;;;;18.07;13.60;;;;;;;3.15;100.00;97512.16;5066874;28;20192;-86
2021/12/10 02:07:36;;;;;;;21.50;13.00;;;;;;;3.10;100.00;97496.75;5066882;28;20225;-86
2021/12/10 02:10:06;;;;;;;20.87;13.60;;;;;;;3.16;100.00;97492.91;5105747;28;20214;-86
2021/12/10 02:12:35;;;;;;;21.80;13.10;;;;;;;3.14;100.00;97481.69;5116041;27;20203;-86
2021/12/10 02:15:10;;;;;;;20.13;13.50;;;;;;;3.09;100.00;97475.91;5115111;28;20219;-84
2021/12/10 02:17:40;;;;;;;20.53;13.73;;;;;;;3.11;100.00;97474.03;5116922;27;20202;-86
2021/12/10 02:20:12;;;;;;;20.97;14.00;;;;;;;3.20;100.00;97470.03;5114433;28;20217;-86
2021/12/10 02:22:44;;;;;;;21.17;15.10;;;;;;;3.19;100.00;97461.34;5118088;27;20210;-86
2021/12/10 02:25:20;;;;;;;20.60;13.73;;;;;;;3.11;100.00;97456.56;5109619;28;20203;-86
2021/12/10 02:27:49;;;;;;;21.17;13.47;;;;;;;3.10;100.00;97447.06;5117092;28;20637;-86
2021/12/10 02:30:19;;;;;;;25.13;14.07;;;;;;;3.19;100.00;97440.41;5114153;28;20212;-86
2021/12/10 02:32:48;;;;;;;20.47;13.30;;;;;;;3.13;100.00;97438.16;5115161;28;20252;-86
2021/12/10 02:35:16;;;;;;;19.20;13.23;;;;;;;3.12;100.00;97444.34;5079380;28;20206;-86
2021/12/10 02:37:48;;;;;;;23.83;14.47;;;;;;;3.14;100.00;97435.47;5115665;28;20206;-86
2021/12/10 02:40:20;;;;;;;20.90;13.23;;;;;;;3.10;100.00;97439.22;5115569;27;20195;-86
2021/12/10 02:42:49;;;;;;;19.13;13.47;;;;;;;3.22;100.00;97431.53;5118560;27;20203;-86
2021/12/10 02:45:22;;;;;;;18.93;12.27;;;;;;;3.09;100.00;97429.69;5115378;28;20191;-86
2021/12/10 02:47:51;;;;;;;17.70;12.60;;;;;;;3.09;100.00;97432.31;5111038;28;20203;-86
2021/12/10 02:50:26;;;;;;;19.50;12.73;;;;;;;2.95;100.00;97432.28;5115186;28;20264;-86
2021/12/10 02:52:57;;;;;;;22.53;13.77;;;;;;;2.92;100.00;97427.25;5116869;28;20203;-86
2021/12/10 02:55:29;;;;;;;20.20;14.67;;;;;;;2.93;100.00;97428.94;5112399;28;20245;-86
2021/12/10 02:58:05;;;;;;;21.20;14.33;;;;;;;2.95;100.00;97414.00;5115077;28;20228;-86
2021/12/10 03:00:40;;;;;;;18.80;13.57;;;;;;;3.10;100.00;97415.66;5114311;28;20232;-86
2021/12/10 03:03:09;;;;;;;22.47;13.53;;;;;;;2.96;100.00;97410.44;5096309;28;20194;-87
2021/12/10 03:05:38;;;;;;;23.10;14.30;;;;;;;2.99;100.00;97406.78;5115041;28;20199;-86
2021/12/10 03:08:09;;;;;;;18.30;13.13;;;;;;;3.03;100.00;97403.91;5112554;28;20685;-86
2021/12/10 03:10:37;;;;;;;19.40;13.57;;;;;;;3.16;100.00;97406.59;5116121;28;20187;-86
2021/12/10 03:13:07;;;;;;;19.40;14.13;;;;;;;3.02;100.00;97404.00;5068932;28;20230;-86
2021/12/10 03:15:39;;;;;;;20.67;13.87;;;;;;;3.01;100.00;97397.09;5069693;28;20216;-86
2021/12/10 03:18:11;;;;;;;19.17;13.13;;;;;;;3.00;100.00;97391.03;5069998;28;20188;-87
2021/12/10 03:20:40;;;;;;;23.03;13.13;;;;;;;3.05;100.00;97380.25;5069244;28;20247;-86
2021/12/10 03:23:13;;;;;;;17.67;13.10;;;;;;;3.11;100.00;97378.13;5000913;28;20187;-84
2021/12/10 03:25:42;;;;;;;21.50;12.93;;;;;;;3.21;100.00;97373.16;5018656;28;20210;-85
2021/12/10 03:28:11;;;;;;;18.30;12.10;;;;;;;3.20;100.00;97360.16;5005932;28;20198;-87
2021/12/10 03:30:43;;;;;;;21.97;12.63;;;;;;;3.26;100.00;97363.22;4991173;28;20195;-86
2021/12/10 03:33:12;;;;;;;22.27;12.70;;;;;;;3.16;100.00;97362.13;4989948;28;20197;-86
2021/12/10 03:35:44;;;;;;;25.33;14.80;;;;;;;3.26;100.00;97350.13;4992465;28;20265;-86
2021/12/10 03:38:21;;;;;;;21.67;11.47;;;;;;;3.17;100.00;97348.94;5027838;28;20308;-86
2021/12/10 03:40:50;;;;;;;17.63;10.70;;;;;;;3.27;100.00;97343.13;5067865;28;20202;-86
2021/12/10 03:43:20;;;;;;;18.00;10.87;;;;;;;3.32;100.00;97348.91;5115888;27;20195;-86
2021/12/10 03:45:52;;;;;;;21.83;11.77;;;;;;;3.15;100.00;97344.75;5117375;28;20199;-89
2021/12/10 03:48:24;;;;;;;18.33;11.00;;;;;;;3.21;100.00;97347.00;5124689;28;20198;-86
2021/12/10 03:50:54;;;;;;;18.77;11.57;;;;;;;3.23;100.00;97342.50;5108450;28;20271;-86
2021/12/10 03:53:25;;;;;;;22.30;11.60;;;;;;;3.15;100.00;97345.59;5115311;28;20646;-86
2021/12/10 03:56:00;;;;;;;22.27;11.27;;;;;;;3.01;100.00;97353.47;5114717;28;20214;-86
2021/12/10 03:58:29;;;;;;;22.40;11.53;;;;;;;3.14;100.00;97346.53;5115079;28;20198;-87
2021/12/10 04:00:58;;;;;;;33.07;17.83;;;;;;;3.23;100.00;97346.88;5112175;28;20187;-87
2021/12/10 04:03:29;;;;;;;19.57;11.87;;;;;;;3.25;100.00;97345.00;5115041;28;20198;-86
2021/12/10 04:05:58;;;;;;;23.23;11.80;;;;;;;2.98;100.00;97335.34;5113800;28;20195;-86
2021/12/10 04:08:28;;;;;;;20.40;10.67;;;;;;;3.07;100.00;97329.53;5114452;28;20218;-86
2021/12/10 04:10:57;;;;;;;19.30;11.03;;;;;;;3.09;100.00;97321.63;5112343;28;20633;-86
2021/12/10 04:13:26;;;;;;;22.10;11.30;;;;;;;3.05;100.00;97323.56;5114809;28;20191;-86
2021/12/10 04:15:54;;;;;;;19.10;10.67;;;;;;;3.16;100.00;97318.50;5112532;28;20223;-86
2021/12/10 04:18:23;;;;;;;18.50;10.30;;;;;;;3.09;100.00;97316.41;5099616;27;20199;-86
2021/12/10 04:20:52;;;;;;;21.73;11.20;;;;;;;3.12;100.00;97314.41;5110731;28;20190;-86
2021/12/10 04:23:23;;;;;;;17.93;10.67;;;;;;;3.04;100.00;97311.44;5111009;28;20237;-86
2021/12/10 04:25:55;;;;;;;25.63;11.30;;;;;;;3.13;100.00;97299.56;5116874;27;20195;-86
2021/12/10 04:28:24;;;;;;;15.97;10.60;;;;;;;3.15;100.00;97290.66;5114535;28;20195;-86
2021/12/10 04:30:53;;;;;;;19.47;10.60;;;;;;;3.29;100.00;97287.19;5114218;28;20198;-86
2021/12/10 04:33:26;;;;;;;18.67;10.77;;;;;;;3.21;100.00;97284.22;5117082;27;20191;-86
2021/12/10 04:36:00;;;;;;;19.80;10.50;;;;;;;3.25;100.00;97290.91;5114732;28;20223;-86
2021/12/10 04:38:30;;;;;;;19.20;10.07;;;;;;;3.23;100.00;97289.34;5114410;28;20187;-86
2021/12/10 04:41:04;;;;;;;17.10;9.83;;;;;;;3.13;100.00;97276.03;5108793;28;20207;-86
2021/12/10 04:43:35;;;;;;;15.13;9.43;;;;;;;3.13;100.00;97270.78;5113231;28;20234;-86
2021/12/10 04:46:03;;;;;;;16.60;9.13;;;;;;;3.17;100.00;97265.25;5114420;28;20400;-86
2021/12/10 04:48:46;;;;;;;14.87;9.37;;;;;;;3.10;100.00;97266.59;5111637;28;20199;-86
2021/12/10 04:51:16;;;;;;;15.20;8.50;;;;;;;3.20;100.00;97256.38;5115473;27;20240;-86
2021/12/10 04:53:45;;;;;;;16.33;9.87;;;;;;;3.14;100.00;97252.38;5109250;28;20206;-86
2021/12/10 04:56:15;;;;;;;17.80;8.30;;;;;;;3.13;100.00;97239.41;5113941;28;20326;-86
2021/12/10 04:58:43;;;;;;;18.57;9.40;;;;;;;3.25;100.00;97246.44;5114313;28;20206;-86
2021/12/10 05:01:12;;;;;;;13.53;7.17;;;;;;;3.12;100.00;97238.56;5111419;28;20193;-87
2021/12/10 05:03:41;;;;;;;15.07;7.70;;;;;;;3.06;100.00;97231.13;5110493;28;20222;-86
2021/12/10 05:06:10;;;;;;;16.77;7.13;;;;;;;3.08;100.00;97225.78;5111107;28;20705;-86
2021/12/10 05:08:39;;;;;;;13.73;6.63;;;;;;;3.12;100.00;97238.56;5113952;28;20218;-86
2021/12/10 05:11:11;;;;;;;17.53;6.60;;;;;;;3.22;100.00;97237.97;5112036;28;20209;-86
2021/12/10 05:13:44;;;;;;;12.63;6.77;;;;;;;3.25;100.00;97235.16;5108685;28;20195;-86
2021/12/10 05:16:14;;;;;;;14.30;6.60;;;;;;;3.23;100.00;97223.94;5110523;28;20210;-86
2021/12/10 05:18:48;;;;;;;15.93;7.23;;;;;;;3.24;100.00;97226.47;5113042;28;20654;-85
2021/12/10 05:21:18;;;;;;;12.83;5.60;;;;;;;3.01;100.00;97212.28;5112628;28;20194;-85
2021/12/10 05:23:46;;;;;;;10.63;5.70;;;;;;;3.16;100.00;97205.19;5114170;28;20187;-86
2021/12/10 05:26:15;;;;;;;13.90;6.63;;;;;;;3.13;100.00;97208.03;5112868;27;20244;-86
2021/12/10 05:28:46;;;;;;;17.83;6.93;;;;;;;3.11;100.00;97200.28;5108804;28;20206;-85
2021/12/10 05:31:15;;;;;;;12.70;6.30;;;;;;;3.24;100.00;97189.00;5092713;28;20245;-86
2021/12/10 05:33:45;;;;;;;15.30;6.27;;;;;;;3.18;100.00;97192.84;5110636;28;20707;-86
2021/12/10 05:36:13;;;;;;;12.67;5.43;;;;;;;3.16;100.00;97189.50;5109987;28;20681;-86
2021/12/10 05:38:41;;;;;;;12.57;5.00;;;;;;;3.15;100.00;97193.91;5113644;28;20191;-86
2021/12/10 05:41:11;;;;;;;13.33;5.43;;;;;;;3.28;100.00;97185.22;5078799;28;20187;-86
2021/12/10 05:43:41;;;;;;;12.50;5.20;;;;;;;3.26;100.00;97182.72;5108732;28;20220;-86
2021/12/10 05:46:12;;;;;;;9.20;4.53;;;;;;;3.27;100.00;97180.94;5113434;28;20234;-86
2021/12/10 05:48:42;;;;;;;15.67;5.17;;;;;;;3.07;100.00;97174.41;5110178;28;20191;-86
2021/12/10 05:51:12;;;;;;;13.50;5.10;;;;;;;3.14;100.00;97173.91;5112545;28;20255;-86
2021/12/10 05:53:41;;;;;;;9.93;4.40;;;;;;;3.22;100.00;97176.03;5114272;28;20219;-86
2021/12/10 05:56:09;;;;;;;13.53;4.90;;;;;;;3.15;100.00;97185.22;5117222;28;20219;-86
2021/12/10 05:58:38;;;;;;;12.20;4.30;;;;;;;3.19;100.00;97175.41;5116972;28;20206;-86
2021/12/10 06:01:10;;;;;;;12.10;4.40;;;;;;;3.18;100.00;97169.31;5117064;28;20218;-86
2021/12/10 06:03:50;;;;;;;9.13;3.83;;;;;;;3.15;100.00;97164.28;5114909;28;20319;-85
2021/12/10 06:06:19;;;;;;;9.00;3.97;;;;;;;3.13;100.00;97158.34;5115521;28;20225;-86
2021/12/10 06:08:48;;;;;;;12.33;3.87;;;;;;;3.07;100.00;97156.94;5118856;27;20223;-86
2021/12/10 06:11:18;;;;;;;17.67;4.10;;;;;;;3.11;100.00;97155.00;5116605;28;20187;-86
2021/12/10 06:13:47;;;;;;;14.43;3.97;;;;;;;3.07;100.00;97156.13;5114443;28;20195;-86
2021/12/10 06:16:17;;;;;;;11.77;3.60;;;;;;;3.04;100.00;97148.47;5116526;28;20214;-86
2021/12/10 06:18:48;;;;;;;10.70;3.80;;;;;;;3.11;100.00;97141.91;5114002;28;20203;-86
2021/12/10 06:21:17;;;;;;;13.07;3.97;;;;;;;3.14;100.00;97144.31;5117918;27;20193;-86
2021/12/10 06:23:46;;;;;;;8.43;3.67;;;;;;;3.04;100.00;97133.63;5111070;28;20203;-86
2021/12/10 06:26:14;;;;;;;5.63;2.87;;;;;;;3.06;100.00;97133.53;5117471;28;20191;-86
2021/12/10 06:28:45;;;;;;;9.03;3.10;;;;;;;3.10;100.00;97124.56;5094297;28;20237;-85
2021/12/10 06:31:16;;;;;;;10.80;2.83;;;;;;;3.04;100.00;97117.09;5093052;28;20188;-86
2021/12/10 06:33:45;;;;;;;13.57;6.23;;;;;;;3.02;100.00;97114.59;5091873;28;20770;-86
2021/12/10 06:36:15;;;;;;;14.97;5.77;;;;;;;3.08;100.00;97105.50;5089680;28;20223;-85
2021/12/10 06:38:45;;;;;;;13.93;6.07;;;;;;;2.99;100.00;97101.75;5092477;28;20249;-85
2021/12/10 06:41:14;;;;;;;14.50;6.73;;;;;;;2.91;100.00;97098.78;5099227;28;20196;-86
2021/12/10 06:43:43;;;;;;;12.60;5.70;;;;;;;2.92;100.00;97094.41;5085085;28;20274;-85
2021/12/10 06:46:12;;;;;;;24.83;13.10;;;;;;;3.00;100.00;97089.50;5094932;28;20203;-86
2021/12/10 06:48:41;;;;;;;10.03;4.13;;;;;;;2.92;100.00;97091.78;5113207;28;20699;-86
2021/12/10 06:51:15;;;;;;;17.17;7.20;;;;;;;2.96;100.00;97088.84;5072401;28;20193;-86
2021/12/10 06:53:46;;;;;;;13.33;5.37;;;;;;;2.88;100.00;97084.13;5025197;28;20215;-85
2021/12/10 06:56:17;;;;;;;12.83;3.50;;;;;;;2.94;100.00;97090.72;5071016;28;20195;-85
2021/12/10 06:58:45;;;;;;;8.37;3.20;;;;;;;2.91;100.00;97075.25;5071357;28;20207;-86
2021/12/10 07:01:18;;;;;;;5.80;2.33;;;;;;;2.87;100.00;97068.53;5070185;28;20189;-86
2021/12/10 07:03:48;;;;;;;11.13;2.67;;;;;;;2.88;100.00;97067.59;5070328;28;20203;-86
2021/12/10 07:06:16;;;;;;;7.20;2.33;;;;;;;2.86;100.00;97056.41;5071711;28;20192;-85
2021/12/10 07:08:48;;;;;;;9.53;2.13;;;;;;;2.73;100.00;97051.19;5080158;28;20302;-85
2021/12/10 07:11:18;;;;;;;11.23;2.30;;;;;;;2.74;100.00;97045.00;5112909;28;20205;-85
2021/12/10 07:13:50;;;;;;;12.27;4.20;;;;;;;2.67;100.00;97032.44;5115540;28;20191;-86
2021/12/10 07:16:21;;;;;;;6.47;2.40;;;;;;;2.64;100.00;97028.28;5110890;28;20256;-85
2021/12/10 07:18:50;;;;;;;3.77;2.53;;;;;;;2.50;100.00;97030.94;5112714;28;20188;-85
2021/12/10 07:21:19;;;;;;;9.93;2.53;;;;;;;2.48;100.00;97025.81;5114301;28;20187;-85
2021/12/10 07:23:49;;;;;;;8.50;2.70;;;;;;;2.48;100.00;97030.22;5114105;28;20206;-86
2021/12/10 07:26:18;;;;;;;9.40;2.57;;;;;;;2.40;100.00;97020.25;5116028;28;20195;-86
2021/12/10 07:28:47;;;;;;;7.03;3.47;;;;;;;2.37;100.00;97020.47;5117843;27;20244;-85
2021/12/10 07:31:16;;;;;;;9.33;3.70;;;;;;;2.36;100.00;97025.81;5115258;28;20594;-85
2021/12/10 07:33:45;;;;;;;8.77;3.30;;;;;;;2.29;100.00;97013.13;5108902;28;20244;-86
2021/12/10 07:36:15;;;;;;;9.20;4.43;;;;;;;2.28;100.00;97013.25;5112238;28;20654;-85
2021/12/10 07:38:44;;;;;;;12.10;5.90;;;;;;;2.26;100.00;97015.13;5114430;27;20219;-85
2021/12/10 07:41:14;;;;;;;14.10;5.50;;;;;;;2.23;100.00;97016.16;5114942;28;20187;-86
2021/12/10 07:43:43;;;;;;;14.57;4.50;;;;;;;2.20;100.00;97018.13;5079755;28;20199;-86
2021/12/10 07:46:13;;;;;;;14.10;6.03;;;;;;;2.20;100.00;97007.69;5116168;27;20275;-86
2021/12/10 07:48:43;;;;;;;10.03;4.33;;;;;;;2.24;100.00;97010.00;5114874;28;20218;-87
2021/12/10 07:51:20;;;;;;;16.60;4.77;;;;;;;2.12;100.00;97010.78;5112115;28;20197;-86
2021/12/10 07:53:51;;;;;;;17.47;6.47;;;;;;;2.19;100.00;97009.44;5115636;28;20205;-86
2021/12/10 07:56:22;;;;;;;13.77;4.73;;;;;;;2.19;100.00;97012.06;5111965;28;20260;-86
2021/12/10 07:58:50;;;;;;;11.93;4.17;;;;;;;2.17;100.00;97002.66;5112713;28;20225;-86
2021/12/10 08:01:24;;;;;;;12.23;2.83;;;;;;;2.20;100.00;97000.69;5109398;28;20633;-86
2021/12/10 08:03:55;;;;;;;8.13;2.87;;;;;;;2.19;100.00;96991.19;5109088;28;20630;-86
2021/12/10 08:06:24;;;;;;;9.07;2.37;;;;;;;2.23;100.00;96984.00;5113369;28;20183;-86
2021/12/10 08:08:52;;;;;;;12.17;2.80;;;;;;;2.17;100.00;96982.59;5114418;28;20219;-86
2021/12/10 08:11:23;;;;;;;6.40;2.30;;;;;;;2.17;100.00;96976.56;5114488;28;20195;-86
2021/12/10 08:13:52;;;;;;;7.83;3.10;;;;;;;2.15;100.00;96981.88;5112326;28;20202;-86
2021/12/10 08:16:23;;;;;;;9.33;3.23;;;;;;;2.21;100.00;96981.47;5114857;28;20190;-86
2021/12/10 08:18:53;;;;;;;8.67;2.90;;;;;;;2.15;100.00;96973.22;5114588;27;20211;-86
2021/12/10 08:21:22;;;;;;;6.37;2.70;;;;;;;2.18;100.00;96978.22;5113167;28;20207;-86
2021/12/10 08:23:53;;;;;;;9.87;3.00;;;;;;;2.22;100.00;96979.69;5112771;28;20846;-86
2021/12/10 08:26:23;;;;;;;9.13;2.87;;;;;;;2.31;100.00;96968.63;5113557;28;20250;-86
2021/12/10 08:28:52;;;;;;;6.37;3.17;;;;;;;2.27;100.00;96978.44;5112053;28;20240;-86
2021/12/10 08:31:21;;;;;;;9.93;3.00;;;;;;;2.39;100.00;96974.19;5113136;28;20206;-85
2021/12/10 08:33:51;;;;;;;5.43;2.17;;;;;;;2.47;100.00;96976.31;5114149;28;20214;-85
2021/12/10 08:36:22;;;;;;;8.27;2.33;;;;;;;2.46;100.00;96972.84;5112996;28;20195;-86
2021/12/10 08:38:51;;;;;;;6.10;2.40;;;;;;;2.45;100.00;96971.19;5114229;28;20229;-85
2021/12/10 08:41:23;;;;;;;7.70;2.47;;;;;;;2.61;100.00;96970.16;5114564;28;20202;-86
2021/12/10 08:43:54;;;;;;;5.00;2.20;;;;;;;2.65;100.00;96969.84;5054205;28;20197;-85
2021/12/10 08:46:23;;;;;;;11.80;2.60;;;;;;;2.78;100.00;96977.69;5050867;28;20196;-86
2021/12/10 08:48:51;;;;;;;5.73;2.53;;;;;;;2.88;100.00;96968.28;5049807;28;20199;-86
2021/12/10 08:51:24;;;;;;;9.37;3.30;;;;;;;2.99;100.00;96973.63;5051693;28;20211;-85
2021/12/10 08:53:53;;;;;;;10.93;3.50;;;;;;;3.15;100.00;96976.00;5050508;28;20197;-85
2021/12/10 08:56:24;;;;;;;12.33;3.90;;;;;;;3.06;100.00;96963.56;5047985;28;20199;-86
2021/12/10 08:58:52;;;;;;;8.07;2.87;;;;;;;3.05;100.00;96965.34;5052668;28;20212;-85
2021/12/10 09:01:23;;;;;;;22.37;7.20;;;;;;;2.96;100.00;96965.97;5063588;28;20278;-85
2021/12/10 09:03:56;;;;;;;14.70;5.13;;;;;;;3.02;100.00;96959.50;5115193;28;20240;-85
2021/12/10 09:06:27;;;;;;;10.57;4.20;;;;;;;2.95;100.00;96961.69;5115395;27;20195;-85
2021/12/10 09:08:56;;;;;;;13.23;5.00;;;;;;;2.99;100.00;96964.91;5113771;28;20226;-85
2021/12/10 09:11:32;;;;;;;10.07;3.43;;;;;;;2.92;100.00;96961.91;5091708;28;20288;-85
2021/12/10 09:14:30;;;;;;;21.93;7.43;;;;;;;2.90;100.00;96965.59;5093294;28;20200;-85
2021/12/10 09:17:01;;;;;;;16.43;5.97;;;;;;;2.96;100.00;96976.44;5051447;28;20207;-84
2021/12/10 09:19:30;;;;;;;21.40;6.50;;;;;;;3.09;100.00;96966.00;5049855;28;20316;-85
2021/12/10 09:21:59;;;;;;;6.97;2.90;;;;;;;3.07;100.00;96971.28;5050188;28;20205;-85
2021/12/10 09:24:29;;;;;;;29.13;9.20;;;;;;;3.18;100.00;96973.16;5049920;28;20201;-85
2021/12/10 09:27:01;;;;;;;5.43;2.40;;;;;;;3.23;100.00;96963.22;5054083;28;20298;-85
2021/12/10 09:29:35;;;;;;;15.07;5.00;;;;;;;3.26;100.00;96964.78;5062328;28;20200;-86
2021/12/10 09:32:05;;;;;;;15.63;6.43;;;;;;;3.21;100.00;96962.50;5069554;28;20194;-85
2021/12/10 09:34:37;;;;;;;24.70;8.90;;;;;;;3.29;100.00;96968.06;5077256;28;20203;-85
2021/12/10 09:37:06;;;;;;;25.23;8.17;;;;;;;3.42;100.00;96960.16;5075001;28;20196;-86
2021/12/10 09:39:37;;;;;;;14.23;4.70;;;;;;;3.49;100.00;96956.19;5073167;28;20212;-86
2021/12/10 09:42:08;;;;;;;15.87;5.37;;;;;;;3.50;100.00;96957.00;5033015;28;20193;-86
2021/12/10 09:44:38;;;;;;;16.93;5.70;;;;;;;3.78;100.00;96951.47;5036508;28;20189;-85
2021/12/10 09:47:10;;;;;;;10.17;4.53;;;;;;;3.68;100.00;96947.84;5041932;28;20210;-86
2021/12/10 09:49:39;;;;;;;6.23;2.80;;;;;;;3.60;100.00;96940.53;5090338;28;20245;-86
2021/12/10 09:52:08;;;;;;;14.30;6.17;;;;;;;3.63;100.00;96942.94;5090169;28;20203;-86
2021/12/10 09:54:38;;;;;;;8.87;3.40;;;;;;;3.66;100.00;96936.63;5088733;28;20195;-85
2021/12/10 09:57:12;;;;;;;11.33;3.50;;;;;;;3.89;100.00;96930.59;5116121;28;20183;-84
2021/12/10 09:59:45;;;;;;;6.80;2.60;;;;;;;3.90;100.00;96923.56;5122714;28;20295;-84
2021/12/10 10:02:15;;;;;;;6.30;2.60;;;;;;;3.88;100.00;96918.44;5119208;27;20690;-85
2021/12/10 10:04:48;;;;;;;7.10;2.60;;;;;;;3.85;100.00;96918.66;5117785;28;20191;-85
2021/12/10 10:07:21;;;;;;;8.17;2.60;;;;;;;3.69;100.00;96903.25;5116813;28;20194;-85
2021/12/10 10:09:53;;;;;;;9.90;4.03;;;;;;;3.79;100.00;96899.97;5114731;28;20240;-85
2021/12/10 10:12:29;;;;;;;8.30;2.40;;;;;;;3.77;100.00;96897.44;5076241;28;20200;-85
2021/12/10 10:14:58;;;;;;;10.43;3.50;;;;;;;4.11;100.00;96895.78;5071391;28;20640;-85
2021/12/10 10:17:48;;;;;;;5.80;3.30;;;;;;;4.09;100.00;96895.06;5074800;28;20224;-85
2021/12/10 10:20:22;;;;;;;8.27;2.20;;;;;;;4.20;100.00;96895.09;5063479;28;20200;-85
2021/12/10 10:22:51;;;;;;;5.07;2.60;;;;;;;4.34;100.00;96893.22;5071978;28;20246;-85
2021/12/10 10:25:23;;;;;;;5.20;2.80;;;;;;;4.51;100.00;96895.41;5072269;28;20204;-85
2021/12/10 10:27:55;;;;;;;5.67;2.00;;;;;;;4.49;100.00;96892.91;5074836;28;20193;-85
2021/12/10 10:30:30;;;;;;;6.50;2.23;;;;;;;4.41;100.00;96886.56;5084964;28;20661;-85
2021/12/10 10:33:02;;;;;;;11.43;3.00;;;;;;;4.41;100.00;96883.94;5117075;28;20196;-85
2021/12/10 10:35:34;;;;;;;9.87;3.17;;;;;;;4.32;100.00;96878.44;5114535;28;20202;-85
2021/12/10 10:38:04;;;;;;;5.20;2.50;;;;;;;4.36;100.00;96878.25;5111181;28;20191;-85
2021/12/10 10:40:37;;;;;;;6.90;2.80;;;;;;;4.34;100.00;96877.50;5113310;28;20215;-86
2021/12/10 10:43:08;;;;;;;4.90;2.43;;;;;;;4.26;100.00;96880.72;5119056;27;20195;-85
2021/12/10 10:45:39;;;;;;;7.43;3.27;;;;;;;4.26;100.00;96871.06;5116563;28;20195;-85
2021/12/10 10:48:07;;;;;;;7.03;3.23;;;;;;;4.21;100.00;96861.88;5115528;28;20199;-85
2021/12/10 10:50:41;;;;;;;8.60;2.93;;;;;;;4.38;100.00;96863.22;5113780;28;20183;-85
2021/12/10 10:53:14;;;;;;;9.37;2.87;;;;;;;4.38;100.00;96852.75;5116535;27;20247;-85
2021/12/10 10:55:51;;;;;;;8.60;2.87;;;;;;;4.37;100.00;96848.47;5110323;28;20199;-86
2021/12/10 10:58:25;;;;;;;9.13;3.53;;;;;;;4.31;100.00;96847.13;5116395;28;20186;-85
2021/12/10 11:01:00;;;;;;;8.40;2.67;;;;;;;4.55;100.00;96844.44;5115587;28;20680;-86
2021/12/10 11:03:57;;;;;;;7.97;2.60;;;;;;;4.73;100.00;96840.41;5117065;28;20195;-85
2021/12/10 11:06:37;;;;;;;5.80;2.43;;;;;;;4.66;100.00;96828.72;5115734;28;20239;-86
2021/12/10 11:09:11;;;;;;;7.67;2.70;;;;;;;4.78;100.00;96837.41;5114141;28;20222;-86
2021/12/10 11:11:45;;;;;;;5.70;2.30;;;;;;;4.97;100.00;96834.19;5116872;28;20209;-86
2021/12/10 11:14:20;;;;;;;8.67;2.53;;;;;;;5.28;100.00;96837.81;5117012;28;20195;-85
2021/12/10 11:16:52;;;;;;;5.97;2.83;;;;;;;5.20;100.00;96827.94;5116861;27;20195;-85
2021/12/10 11:19:22;;;;;;;11.77;3.73;;;;;;;5.37;100.00;96824.78;5116006;28;20219;-85
2021/12/10 11:21:53;;;;;;;9.10;3.00;;;;;;;5.67;100.00;96820.63;5115470;28;20195;-85
2021/12/10 11:24:24;;;;;;;6.83;2.80;;;;;;;5.82;100.00;96818.56;5109459;28;20646;-85
2021/12/10 11:26:58;;;;;;;19.50;9.67;;;;;;;5.99;100.00;96820.66;5116670;28;20215;-86
2021/12/10 11:29:48;;;;;;;19.90;9.70;;;;;;;6.15;100.00;96812.31;5115927;28;20244;-85
2021/12/10 11:32:21;;;;;;;6.27;3.10;;;;;;;6.11;100.00;96816.16;5110775;28;20248;-85
2021/12/10 11:34:56;;;;;;;8.63;3.30;;;;;;;6.07;100.00;96818.19;5115759;28;20285;-85
2021/12/10 11:37:57;;;;;;;8.80;4.63;;;;;;;6.12;100.00;96816.03;5113696;28;20226;-84
2021/12/10 11:40:48;;;;;;;5.20;2.30;;;;;;;5.69;100.00;96811.69;5053372;28;20220;-84
2021/12/10 11:49:13;;;;;;;5.20;1.80;;;;;;;5.40;100.00;96808.81;5114734;28;20224;-84
2021/12/10 11:51:44;;;;;;;8.83;2.93;;;;;;;5.44;100.00;96804.97;5078899;28;20191;-84
2021/12/10 11:54:23;;;;;;;8.57;3.00;;;;;;;5.45;100.00;96798.75;5117386;27;20199;-84
2021/12/10 11:56:58;;;;;;;5.37;2.10;;;;;;;5.27;100.00;96808.13;5133725;28;20204;-84
2021/12/10 11:59:31;;;;;;;4.83;2.47;;;;;;;5.67;100.00;96807.50;5118659;28;20230;-84